createdAt,value
2022-08-08T00:02:03.542Z,19.70
2022-08-08T00:04:49.444Z,19.70
2022-08-08T00:07:35.398Z,19.60
2022-08-08T00:10:15.203Z,19.60
2022-08-08T00:12:56.484Z,19.60
2022-08-08T00:15:56.451Z,19.50
2022-08-08T00:18:30.543Z,19.50
2022-08-08T00:21:06.091Z,19.50
2022-08-08T00:23:47.830Z,19.50
2022-08-08T00:26:29.691Z,19.50
2022-08-08T00:29:08.904Z,19.50
2022-08-08T00:32:14.886Z,19.40
2022-08-08T00:35:24.367Z,19.40
2022-08-08T00:38:32.402Z,19.40
2022-08-08T00:42:13.327Z,19.30
2022-08-08T00:45:44.598Z,19.30
2022-08-08T00:49:22.885Z,19.20
2022-08-08T00:52:21.300Z,19.10
2022-08-08T00:55:35.752Z,19.10
2022-08-08T00:58:55.255Z,19.10
2022-08-08T01:01:37.923Z,19.00
2022-08-08T01:05:28.976Z,19.00
2022-08-08T01:08:56.681Z,18.90
2022-08-08T01:12:04.755Z,18.80
2022-08-08T01:15:43.828Z,18.80
2022-08-08T01:19:02.589Z,18.70
2022-08-08T01:22:46.623Z,18.70
2022-08-08T01:26:13.278Z,18.60
2022-08-08T01:29:35.101Z,18.60
2022-08-08T01:33:27.728Z,18.50
2022-08-08T01:37:13.803Z,18.50
2022-08-08T01:40:05.952Z,18.50
2022-08-08T01:42:51.972Z,18.40
2022-08-08T01:45:54.221Z,18.40
2022-08-08T01:48:48.352Z,18.40
2022-08-08T01:52:04.654Z,18.30
2022-08-08T01:56:04.567Z,18.30
2022-08-08T01:58:32.242Z,18.30
2022-08-08T02:01:22.497Z,18.20
2022-08-08T02:04:11.661Z,18.20
2022-08-08T02:07:00.393Z,18.20
2022-08-08T02:10:04.132Z,18.10
2022-08-08T02:12:53.258Z,18.10
2022-08-08T02:15:38.596Z,18.00
2022-08-08T02:18:15.300Z,18.00
2022-08-08T02:21:18.165Z,18.00
2022-08-08T02:23:59.281Z,17.90
2022-08-08T02:26:34.839Z,17.90
2022-08-08T02:29:46.814Z,17.80
2022-08-08T02:33:02.209Z,17.80
2022-08-08T02:36:04.823Z,17.80
2022-08-08T02:38:55.853Z,17.80
2022-08-08T02:42:42.086Z,17.70
2022-08-08T02:46:08.088Z,17.70
2022-08-08T02:49:51.107Z,13.90
2022-08-08T02:52:51.587Z,17.60
2022-08-08T02:56:19.950Z,17.60
2022-08-08T02:59:58.348Z,17.60
2022-08-08T03:03:46.229Z,17.50
2022-08-08T03:07:20.004Z,17.50
2022-08-08T03:11:06.215Z,17.50
2022-08-08T03:15:59.847Z,17.50
2022-08-08T03:17:25.603Z,17.40
2022-08-08T03:20:08.319Z,17.40
2022-08-08T03:22:56.401Z,17.40
2022-08-08T03:25:35.770Z,17.30
2022-08-08T03:28:11.402Z,17.30
2022-08-08T03:30:48.750Z,17.30
2022-08-08T03:33:54.625Z,17.30
2022-08-08T03:36:13.750Z,17.30
2022-08-08T03:39:08.348Z,17.20
2022-08-08T03:42:27.862Z,17.20
2022-08-08T03:44:35.587Z,17.20
2022-08-08T03:47:19.843Z,17.20
2022-08-08T03:50:00.613Z,17.10
2022-08-08T03:52:36.866Z,17.20
2022-08-08T03:55:56.288Z,17.10
2022-08-08T03:58:35.257Z,17.20
2022-08-08T04:01:24.528Z,17.10
2022-08-08T04:03:58.044Z,17.00
2022-08-08T04:06:30.645Z,17.00
2022-08-08T04:09:08.850Z,17.00
2022-08-08T04:11:59.096Z,17.00
2022-08-08T04:14:39.698Z,17.00
2022-08-08T04:17:22.880Z,16.90
2022-08-08T04:20:04.887Z,16.90
2022-08-08T04:22:34.722Z,16.90
2022-08-08T04:25:07.277Z,16.90
2022-08-08T04:28:02.067Z,16.90
2022-08-08T04:32:56.705Z,16.90
2022-08-08T04:35:34.487Z,16.90
2022-08-08T04:38:09.841Z,16.90
2022-08-08T04:40:53.656Z,16.90
2022-08-08T04:43:31.948Z,16.90
2022-08-08T04:46:18.590Z,16.90
2022-08-08T04:48:48.448Z,16.90
2022-08-08T04:51:17.471Z,16.90
2022-08-08T04:54:38.978Z,16.90
2022-08-08T04:56:46.232Z,16.90
2022-08-08T04:59:16.156Z,16.90
2022-08-08T05:04:19.255Z,16.80
2022-08-08T05:06:50.566Z,16.80
2022-08-08T05:09:21.546Z,16.80
2022-08-08T05:11:56.766Z,16.80
2022-08-08T05:14:30.548Z,16.90
2022-08-08T05:17:09.003Z,16.90
2022-08-08T05:20:11.574Z,17.00
2022-08-08T05:22:36.281Z,17.00
2022-08-08T05:25:06.150Z,17.00
2022-08-08T05:27:41.682Z,17.00
2022-08-08T05:30:16.598Z,17.10
2022-08-08T05:32:57.054Z,17.10
2022-08-08T05:35:28.773Z,17.10
2022-08-08T05:38:30.478Z,17.20
2022-08-08T05:40:59.857Z,17.20
2022-08-08T05:43:39.366Z,17.20
2022-08-08T05:46:24.604Z,17.30
2022-08-08T05:48:56.674Z,17.30
2022-08-08T05:51:48.177Z,17.30
2022-08-08T05:54:26.839Z,17.30
2022-08-08T05:56:58.240Z,17.30
2022-08-08T05:59:53.609Z,17.40
2022-08-08T06:02:48.720Z,17.40
2022-08-08T06:05:34.954Z,17.40
2022-08-08T06:08:33.128Z,17.50
2022-08-08T06:11:07.249Z,17.50
2022-08-08T06:13:47.553Z,17.60
2022-08-08T06:16:27.568Z,17.60
2022-08-08T06:19:18.867Z,17.70
2022-08-08T06:21:57.913Z,17.70
2022-08-08T06:24:47.089Z,17.70
2022-08-08T06:27:22.689Z,17.80
2022-08-08T06:30:02.538Z,17.90
2022-08-08T06:32:47.635Z,17.90
2022-08-08T06:36:04.945Z,18.00
2022-08-08T06:38:14.412Z,18.00
2022-08-08T06:40:53.829Z,18.10
2022-08-08T06:43:34.377Z,18.10
2022-08-08T06:46:23.789Z,18.20
2022-08-08T06:48:56.031Z,18.30
2022-08-08T06:51:31.197Z,18.30
2022-08-08T06:54:15.624Z,18.40
2022-08-08T06:56:51.584Z,18.50
2022-08-08T06:59:21.949Z,18.60
2022-08-08T07:02:27.912Z,18.60
2022-08-08T07:04:58.392Z,18.70
2022-08-08T07:07:49.750Z,18.70
2022-08-08T07:10:21.706Z,18.90
2022-08-08T07:12:55.364Z,18.90
2022-08-08T07:16:05.017Z,19.00
2022-08-08T07:18:40.829Z,19.10
2022-08-08T07:21:21.223Z,19.20
2022-08-08T07:24:06.956Z,19.50
2022-08-08T07:26:52.980Z,19.40
2022-08-08T07:30:01.972Z,19.70
2022-08-08T07:32:15.625Z,20.40
2022-08-08T07:35:00.763Z,20.50
2022-08-08T07:37:49.588Z,21.00
2022-08-08T07:40:35.416Z,21.60
2022-08-08T07:43:09.199Z,22.20
2022-08-08T07:46:05.781Z,22.70
2022-08-08T07:48:34.423Z,23.10
2022-08-08T07:51:05.603Z,23.50
2022-08-08T07:54:01.110Z,23.90
2022-08-08T07:56:45.142Z,24.20
2022-08-08T07:59:19.468Z,24.50
2022-08-08T08:02:35.579Z,24.90
2022-08-08T08:05:03.553Z,25.10
2022-08-08T08:07:38.919Z,25.50
2022-08-08T08:10:14.273Z,25.80
2022-08-08T08:12:54.358Z,26.10
2022-08-08T08:15:32.034Z,26.40
2022-08-08T08:18:06.248Z,26.70
2022-08-08T08:20:44.008Z,26.90
2022-08-08T08:23:13.693Z,27.00
2022-08-08T08:25:55.197Z,27.10
2022-08-08T08:28:27.314Z,27.20
2022-08-08T08:31:04.643Z,27.40
2022-08-08T08:33:35.884Z,27.70
2022-08-08T08:36:18.556Z,27.90
2022-08-08T08:38:52.509Z,28.10
2022-08-08T08:41:43.241Z,28.40
2022-08-08T08:44:19.852Z,28.50
2022-08-08T08:46:58.481Z,28.60
2022-08-08T08:49:31.930Z,28.70
2022-08-08T08:52:04.696Z,28.80
2022-08-08T08:54:36.152Z,28.90
2022-08-08T08:57:15.960Z,29.10
2022-08-08T08:59:59.451Z,29.20
2022-08-08T09:02:37.220Z,29.30
2022-08-08T09:05:13.999Z,29.40
2022-08-08T09:08:12.777Z,29.50
2022-08-08T09:10:48.549Z,29.50
2022-08-08T09:13:27.815Z,29.70
2022-08-08T09:16:03.542Z,30.10
2022-08-08T09:18:33.406Z,30.10
2022-08-08T09:21:56.515Z,30.30
2022-08-08T09:23:52.123Z,30.40
2022-08-08T09:26:32.438Z,30.60
2022-08-08T09:29:08.223Z,30.80
2022-08-08T09:31:56.090Z,31.10
2022-08-08T09:34:35.449Z,31.40
2022-08-08T09:37:57.788Z,31.60
2022-08-08T09:40:11.856Z,31.70
2022-08-08T09:42:51.192Z,32.00
2022-08-08T09:46:01.172Z,32.20
2022-08-08T09:48:22.056Z,32.40
2022-08-08T09:50:55.738Z,32.60
2022-08-08T09:54:01.160Z,32.80
2022-08-08T09:56:25.373Z,32.90
2022-08-08T09:59:20.045Z,33.00
2022-08-08T10:01:59.119Z,33.10
2022-08-08T10:04:41.723Z,33.40
2022-08-08T10:07:17.365Z,33.60
2022-08-08T10:10:00.701Z,33.90
2022-08-08T10:12:38.859Z,34.10
2022-08-08T10:15:24.394Z,34.20
2022-08-08T10:18:06.304Z,34.20
2022-08-08T10:20:58.194Z,34.30
2022-08-08T10:23:45.034Z,34.30
2022-08-08T10:26:30.536Z,34.40
2022-08-08T10:29:06.009Z,34.50
2022-08-08T10:31:55.444Z,34.50
2022-08-08T10:34:28.809Z,34.60
2022-08-08T10:37:00.523Z,34.80
2022-08-08T10:39:42.841Z,35.00
2022-08-08T10:42:16.989Z,35.10
2022-08-08T10:44:46.121Z,35.10
2022-08-08T10:47:20.746Z,35.00
2022-08-08T10:50:02.278Z,34.90
2022-08-08T10:52:35.697Z,35.10
2022-08-08T10:55:07.461Z,35.10
2022-08-08T10:57:49.988Z,35.20
2022-08-08T11:00:26.133Z,35.30
2022-08-08T11:02:55.331Z,35.40
2022-08-08T11:05:27.450Z,35.60
2022-08-08T11:08:38.135Z,35.80
2022-08-08T11:11:07.974Z,35.90
2022-08-08T11:14:00.537Z,35.90
2022-08-08T11:16:34.658Z,36.00
2022-08-08T11:19:06.015Z,36.00
2022-08-08T11:21:53.952Z,36.00
2022-08-08T11:24:28.919Z,36.20
2022-08-08T11:27:20.001Z,36.30
2022-08-08T11:30:04.436Z,36.50
2022-08-08T11:32:47.435Z,36.80
2022-08-08T11:35:27.287Z,36.80
2022-08-08T11:38:35.724Z,36.80
2022-08-08T11:40:55.852Z,36.90
2022-08-08T11:43:39.093Z,36.90
2022-08-08T11:46:13.915Z,37.10
2022-08-08T11:48:48.002Z,37.40
2022-08-08T11:51:38.245Z,37.60
2022-08-08T11:54:27.465Z,37.90
2022-08-08T11:57:14.177Z,38.00
2022-08-08T12:00:01.604Z,38.00
2022-08-08T12:02:52.104Z,38.00
2022-08-08T12:05:33.499Z,38.00
2022-08-08T12:08:02.636Z,38.10
2022-08-08T12:10:34.087Z,38.00
2022-08-08T12:13:10.530Z,38.00
2022-08-08T12:15:46.939Z,38.00
2022-08-08T12:18:21.322Z,38.00
2022-08-08T12:20:53.255Z,38.00
2022-08-08T12:23:43.419Z,38.10
2022-08-08T12:26:28.181Z,38.20
2022-08-08T12:29:40.470Z,38.30
2022-08-08T12:32:16.924Z,38.40
2022-08-08T12:35:13.395Z,38.60
2022-08-08T12:38:01.527Z,38.70
2022-08-08T12:40:57.096Z,38.60
2022-08-08T12:43:46.556Z,38.60
2022-08-08T12:46:25.141Z,38.70
2022-08-08T12:51:59.177Z,38.70
2022-08-08T12:54:33.031Z,38.80
2022-08-08T12:57:13.162Z,38.90
2022-08-08T13:00:05.094Z,38.80
2022-08-08T13:02:42.093Z,38.90
2022-08-08T13:05:26.641Z,39.10
2022-08-08T13:08:17.210Z,39.10
2022-08-08T13:10:56.823Z,39.40
2022-08-08T13:13:36.975Z,39.60
2022-08-08T13:16:30.035Z,39.70
2022-08-08T13:19:07.967Z,39.70
2022-08-08T13:21:53.528Z,39.70
2022-08-08T13:24:42.083Z,39.70
2022-08-08T13:27:15.754Z,39.70
2022-08-08T13:29:53.150Z,39.70
2022-08-08T13:32:25.274Z,39.80
2022-08-08T13:34:57.762Z,39.90
2022-08-08T13:38:05.711Z,39.90
2022-08-08T13:40:27.568Z,39.90
2022-08-08T13:42:57.682Z,39.90
2022-08-08T13:45:27.350Z,40.00
2022-08-08T13:48:00.014Z,40.00
2022-08-08T13:50:43.960Z,40.30
2022-08-08T13:53:31.365Z,40.30
2022-08-08T13:56:01.685Z,40.40
2022-08-08T13:58:31.153Z,40.60
2022-08-08T14:01:16.371Z,40.80
2022-08-08T14:03:56.196Z,40.80
2022-08-08T14:06:34.274Z,40.80
2022-08-08T14:09:25.510Z,40.70
2022-08-08T14:11:54.556Z,40.60
2022-08-08T14:14:26.998Z,40.70
2022-08-08T14:16:57.430Z,40.80
2022-08-08T14:19:57.973Z,41.00
2022-08-08T14:22:28.691Z,41.10
2022-08-08T14:25:00.779Z,41.10
2022-08-08T14:27:33.311Z,41.20
2022-08-08T14:30:17.916Z,41.30
2022-08-08T14:32:53.266Z,41.20
2022-08-08T14:35:35.090Z,41.10
2022-08-08T14:38:33.919Z,40.80
2022-08-08T14:40:59.602Z,40.60
2022-08-08T14:44:02.864Z,40.40
2022-08-08T14:46:19.344Z,40.40
2022-08-08T14:49:02.684Z,40.30
2022-08-08T14:51:51.803Z,40.30
2022-08-08T14:54:28.882Z,40.30
2022-08-08T14:56:58.612Z,40.10
2022-08-08T14:59:44.413Z,40.10
2022-08-08T15:02:25.618Z,40.10
2022-08-08T15:05:08.005Z,40.30
2022-08-08T15:07:40.476Z,40.40
2022-08-08T15:10:13.061Z,40.50
2022-08-08T15:12:42.187Z,40.70
2022-08-08T15:15:18.804Z,40.90
2022-08-08T15:18:02.157Z,41.10
2022-08-08T15:20:31.329Z,41.00
2022-08-08T15:23:00.317Z,40.90
2022-08-08T15:25:33.075Z,40.90
2022-08-08T15:28:04.165Z,40.80
2022-08-08T15:30:51.419Z,40.60
2022-08-08T15:33:38.230Z,40.40
2022-08-08T15:36:10.232Z,40.30
2022-08-08T15:38:49.536Z,40.40
2022-08-08T15:41:24.572Z,40.40
2022-08-08T15:44:00.702Z,40.00
2022-08-08T15:46:34.860Z,40.10
2022-08-08T15:49:04.587Z,40.10
2022-08-08T15:51:33.620Z,40.10
2022-08-08T15:54:04.181Z,40.00
2022-08-08T15:56:34.001Z,39.90
2022-08-08T15:59:02.438Z,39.90
2022-08-08T16:01:40.447Z,39.90
2022-08-08T16:04:20.159Z,39.90
2022-08-08T16:06:50.433Z,39.80
2022-08-08T16:13:08.885Z,39.70
2022-08-08T16:13:09.902Z,39.60
2022-08-08T16:14:58.398Z,39.40
2022-08-08T16:17:57.374Z,39.10
2022-08-08T16:20:15.250Z,38.80
2022-08-08T16:22:49.323Z,38.70
2022-08-08T16:25:20.993Z,38.80
2022-08-08T16:27:57.138Z,38.90
2022-08-08T16:30:36.380Z,38.90
2022-08-08T16:33:05.728Z,38.90
2022-08-08T16:35:34.311Z,36.20
2022-08-08T16:38:02.807Z,38.80
2022-08-08T16:40:31.974Z,38.50
2022-08-08T16:43:01.905Z,38.30
2022-08-08T16:46:43.736Z,38.20
2022-08-08T16:48:19.383Z,38.20
2022-08-08T16:50:47.918Z,38.20
2022-08-08T16:55:05.263Z,38.10
2022-08-08T16:56:08.833Z,38.10
2022-08-08T16:58:44.408Z,38.00
2022-08-08T17:01:15.883Z,37.90
2022-08-08T17:04:00.910Z,37.70
2022-08-08T17:06:37.374Z,37.50
2022-08-08T17:09:15.304Z,37.20
2022-08-08T17:11:48.996Z,37.00
2022-08-08T17:14:27.076Z,36.80
2022-08-08T17:16:58.373Z,36.60
2022-08-08T17:19:30.346Z,36.50
2022-08-08T17:22:07.100Z,36.10
2022-08-08T17:24:36.729Z,35.70
2022-08-08T17:27:07.527Z,35.20
2022-08-08T17:29:43.819Z,34.70
2022-08-08T17:32:34.348Z,34.50
2022-08-08T17:35:54.376Z,34.30
2022-08-08T17:38:00.671Z,34.20
2022-08-08T17:40:32.192Z,34.10
2022-08-08T17:43:00.941Z,34.00
2022-08-08T17:45:32.799Z,34.00
2022-08-08T17:48:10.107Z,33.70
2022-08-08T17:50:43.850Z,33.40
2022-08-08T17:53:12.712Z,33.10
2022-08-08T17:56:06.270Z,32.70
2022-08-08T17:58:30.394Z,31.80
2022-08-08T18:01:00.176Z,31.40
2022-08-08T18:03:28.663Z,31.10
2022-08-08T18:05:57.177Z,30.80
2022-08-08T18:08:41.480Z,30.50
2022-08-08T18:11:16.169Z,30.10
2022-08-08T18:13:47.193Z,29.90
2022-08-08T18:16:22.854Z,29.70
2022-08-08T18:18:56.046Z,29.50
2022-08-08T18:22:00.236Z,29.50
2022-08-08T18:24:21.206Z,29.10
2022-08-08T18:26:54.828Z,29.00
2022-08-08T18:29:29.804Z,28.80
2022-08-08T18:32:03.565Z,28.60
2022-08-08T18:34:34.155Z,28.50
2022-08-08T18:37:08.420Z,28.30
2022-08-08T18:39:42.048Z,28.20
2022-08-08T18:42:15.809Z,28.20
2022-08-08T18:44:55.569Z,28.00
2022-08-08T18:47:31.264Z,27.90
2022-08-08T18:50:02.508Z,27.80
2022-08-08T18:52:33.875Z,27.70
2022-08-08T18:55:10.167Z,27.50
2022-08-08T18:57:44.610Z,27.40
2022-08-08T19:00:20.096Z,27.80
2022-08-08T19:02:56.859Z,27.20
2022-08-08T19:05:37.710Z,27.10
2022-08-08T19:08:25.245Z,27.00
2022-08-08T19:10:59.266Z,26.90
2022-08-08T19:13:53.857Z,26.80
2022-08-08T19:16:19.404Z,26.70
2022-08-08T19:19:01.968Z,26.60
2022-08-08T19:21:32.935Z,26.60
2022-08-08T19:24:05.721Z,26.50
2022-08-08T19:26:37.438Z,26.40
2022-08-08T19:29:07.107Z,26.30
2022-08-08T19:31:36.145Z,26.20
2022-08-08T19:34:36.579Z,26.20
2022-08-08T19:36:59.283Z,26.10
2022-08-08T19:39:35.592Z,26.00
2022-08-08T19:42:06.749Z,25.90
2022-08-08T19:44:42.667Z,25.90
2022-08-08T19:47:12.593Z,25.80
2022-08-08T19:49:43.039Z,25.70
2022-08-08T19:52:13.312Z,25.70
2022-08-08T19:54:43.212Z,25.50
2022-08-08T19:57:14.235Z,25.50
2022-08-08T19:59:44.769Z,25.40
2022-08-08T20:02:13.406Z,25.40
2022-08-08T20:04:45.611Z,25.30
2022-08-08T20:08:27.072Z,25.20
2022-08-08T20:10:03.024Z,25.10
2022-08-08T20:12:35.229Z,25.10
2022-08-08T20:15:09.756Z,25.00
2022-08-08T20:17:45.049Z,25.00
2022-08-08T20:20:18.863Z,24.90
2022-08-08T20:22:52.514Z,24.80
2022-08-08T20:25:24.728Z,24.80
2022-08-08T20:28:02.151Z,24.80
2022-08-08T20:30:53.671Z,24.70
2022-08-08T20:35:58.511Z,24.60
2022-08-08T20:41:05.464Z,24.50
2022-08-08T20:43:49.323Z,24.40
2022-08-08T20:46:20.248Z,24.30
2022-08-08T20:48:51.310Z,24.20
2022-08-08T20:51:21.357Z,24.20
2022-08-08T20:53:58.989Z,24.20
2022-08-08T20:56:35.948Z,24.10
2022-08-08T20:59:18.246Z,24.00
2022-08-08T21:02:06.553Z,23.90
2022-08-08T21:04:37.264Z,23.80
2022-08-08T21:07:08.319Z,23.80
2022-08-08T21:10:02.276Z,23.70
2022-08-08T21:12:33.260Z,23.70
2022-08-08T21:15:06.948Z,23.60
2022-08-08T21:17:36.861Z,23.50
2022-08-08T21:20:06.990Z,23.40
2022-08-08T21:22:37.922Z,23.40
2022-08-08T21:25:10.807Z,23.20
2022-08-08T21:28:09.249Z,23.20
2022-08-08T21:30:31.672Z,23.10
2022-08-08T21:33:00.063Z,23.10
2022-08-08T21:36:14.317Z,23.10
2022-08-08T21:38:27.185Z,23.00
2022-08-08T21:40:57.185Z,22.90
2022-08-08T21:43:34.224Z,22.80
2022-08-08T21:48:04.363Z,22.80
2022-08-08T21:48:53.934Z,22.80
2022-08-08T21:54:17.506Z,22.70
2022-08-08T21:54:22.350Z,22.70
2022-08-08T21:57:06.780Z,22.60
2022-08-08T22:00:01.337Z,22.60
2022-08-08T22:02:23.997Z,22.60
2022-08-08T22:04:55.904Z,22.50
2022-08-08T22:07:40.358Z,22.50
2022-08-08T22:10:18.162Z,22.40
2022-08-08T22:13:17.241Z,22.40
2022-08-08T22:15:58.584Z,22.40
2022-08-08T22:18:32.444Z,22.30
2022-08-08T22:21:14.342Z,22.30
2022-08-08T22:23:50.254Z,22.20
2022-08-08T22:26:28.179Z,22.20
2022-08-08T22:29:14.283Z,22.10
2022-08-08T22:32:01.500Z,22.10
2022-08-08T22:34:32.574Z,22.10
2022-08-08T22:37:01.490Z,22.00
2022-08-08T22:39:45.650Z,22.00
2022-08-08T22:42:24.047Z,22.00
2022-08-08T22:44:56.685Z,21.90
2022-08-08T22:50:26.789Z,21.90
2022-08-08T22:54:27.494Z,21.80
2022-08-08T22:55:57.645Z,21.80
2022-08-08T22:58:33.848Z,21.80
2022-08-08T23:01:16.636Z,21.70
2022-08-08T23:03:54.983Z,21.60
2022-08-08T23:06:25.033Z,21.70
2022-08-08T23:08:55.306Z,21.60
2022-08-08T23:11:58.165Z,21.60
2022-08-08T23:14:18.379Z,21.60
2022-08-08T23:16:57.610Z,21.50
2022-08-08T23:19:30.986Z,21.50
2022-08-08T23:22:04.464Z,21.50
2022-08-08T23:24:36.176Z,21.40
2022-08-08T23:27:07.156Z,21.40
2022-08-08T23:29:38.106Z,21.30
2022-08-08T23:32:10.129Z,21.30
2022-08-08T23:34:39.669Z,21.30
2022-08-08T23:37:24.582Z,21.20
2022-08-08T23:39:55.527Z,21.20
2022-08-08T23:42:26.516Z,21.20
2022-08-08T23:44:57.565Z,21.10
2022-08-08T23:49:03.891Z,21.10
2022-08-08T23:50:30.210Z,21.00
2022-08-08T23:53:05.062Z,21.00
2022-08-08T23:55:42.172Z,20.90
2022-08-08T23:58:31.907Z,20.90
